sensor_id;sensor_type;location;lat;lon;timestamp;temperature;humidity
14893;DHT22;7538;53.626;9.906;2023-09-19T00:00:06;18.20;99.90
14893;DHT22;7538;53.626;9.906;2023-09-19T00:02:38;18.20;99.90
14893;DHT22;7538;53.626;9.906;2023-09-19T00:05:05;18.10;99.90
14893;DHT22;7538;53.626;9.906;2023-09-19T00:07:33;18.10;99.90
14893;DHT22;7538;53.626;9.906;2023-09-19T00:10:02;20.00;99.90
14893;DHT22;7538;53.626;9.906;2023-09-19T00:12:30;18.00;99.90
14893;DHT22;7538;53.626;9.906;2023-09-19T00:14:57;17.90;99.90
14893;DHT22;7538;53.626;9.906;2023-09-19T00:17:26;17.90;99.90
14893;DHT22;7538;53.626;9.906;2023-09-19T00:19:56;17.90;99.90
14893;DHT22;7538;53.626;9.906;2023-09-19T00:22:22;17.90;99.90
14893;DHT22;7538;53.626;9.906;2023-09-19T00:24:51;17.80;99.90
14893;DHT22;7538;53.626;9.906;2023-09-19T00:27:18;17.90;99.90
14893;DHT22;7538;53.626;9.906;2023-09-19T00:29:45;17.80;99.90
14893;DHT22;7538;53.626;9.906;2023-09-19T00:32:12;17.80;99.90
14893;DHT22;7538;53.626;9.906;2023-09-19T00:34:41;17.70;99.90
14893;DHT22;7538;53.626;9.906;2023-09-19T00:37:08;17.70;99.90
14893;DHT22;7538;53.626;9.906;2023-09-19T00:39:36;17.80;99.90
14893;DHT22;7538;53.626;9.906;2023-09-19T00:42:04;14.00;99.90
14893;DHT22;7538;53.626;9.906;2023-09-19T00:44:31;17.70;99.90
14893;DHT22;7538;53.626;9.906;2023-09-19T00:47:00;17.70;99.90
14893;DHT22;7538;53.626;9.906;2023-09-19T00:49:28;17.70;99.90
14893;DHT22;7538;53.626;9.906;2023-09-19T00:51:57;17.70;99.90
14893;DHT22;7538;53.626;9.906;2023-09-19T00:54:25;17.70;99.90
14893;DHT22;7538;53.626;9.906;2023-09-19T00:56:55;17.70;99.90
14893;DHT22;7538;53.626;9.906;2023-09-19T00:59:22;17.70;99.90
14893;DHT22;7538;53.626;9.906;2023-09-19T01:01:49;17.60;99.90
14893;DHT22;7538;53.626;9.906;2023-09-19T01:04:19;17.60;99.90
14893;DHT22;7538;53.626;9.906;2023-09-19T01:06:46;19.80;99.90
14893;DHT22;7538;53.626;9.906;2023-09-19T01:09:19;17.60;99.90
14893;DHT22;7538;53.626;9.906;2023-09-19T01:11:48;17.70;99.90
14893;DHT22;7538;53.626;9.906;2023-09-19T01:14:26;17.70;99.90
14893;DHT22;7538;53.626;9.906;2023-09-19T01:17:00;17.70;99.90
14893;DHT22;7538;53.626;9.906;2023-09-19T01:20:11;17.60;99.90
14893;DHT22;7538;53.626;9.906;2023-09-19T01:22:56;17.70;99.90
14893;DHT22;7538;53.626;9.906;2023-09-19T01:26:07;17.70;99.90
14893;DHT22;7538;53.626;9.906;2023-09-19T01:28:53;17.60;99.90
14893;DHT22;7538;53.626;9.906;2023-09-19T01:31:28;17.60;99.90
14893;DHT22;7538;53.626;9.906;2023-09-19T01:34:00;17.60;99.90
14893;DHT22;7538;53.626;9.906;2023-09-19T01:36:31;17.70;99.90
14893;DHT22;7538;53.626;9.906;2023-09-19T01:39:02;17.50;99.90
14893;DHT22;7538;53.626;9.906;2023-09-19T01:41:56;17.50;99.90
14893;DHT22;7538;53.626;9.906;2023-09-19T01:44:36;17.60;99.90
14893;DHT22;7538;53.626;9.906;2023-09-19T01:47:17;17.60;99.90
14893;DHT22;7538;53.626;9.906;2023-09-19T01:49:50;17.50;99.90
14893;DHT22;7538;53.626;9.906;2023-09-19T01:52:26;17.40;99.90
14893;DHT22;7538;53.626;9.906;2023-09-19T01:54:58;17.50;99.90
14893;DHT22;7538;53.626;9.906;2023-09-19T01:57:28;17.40;99.90
14893;DHT22;7538;53.626;9.906;2023-09-19T02:00:02;17.30;99.90
14893;DHT22;7538;53.626;9.906;2023-09-19T02:02:34;17.30;99.90
14893;DHT22;7538;53.626;9.906;2023-09-19T02:05:03;17.30;99.90
14893;DHT22;7538;53.626;9.906;2023-09-19T02:07:31;17.30;99.90
14893;DHT22;7538;53.626;9.906;2023-09-19T02:09:58;17.20;99.90
14893;DHT22;7538;53.626;9.906;2023-09-19T02:12:25;17.20;99.90
14893;DHT22;7538;53.626;9.906;2023-09-19T02:14:52;17.30;99.90
14893;DHT22;7538;53.626;9.906;2023-09-19T02:17:19;17.10;99.90
14893;DHT22;7538;53.626;9.906;2023-09-19T02:19:47;17.10;99.90
14893;DHT22;7538;53.626;9.906;2023-09-19T02:22:14;18.70;99.90
14893;DHT22;7538;53.626;9.906;2023-09-19T02:24:41;17.10;99.90
14893;DHT22;7538;53.626;9.906;2023-09-19T02:27:08;17.10;99.90
14893;DHT22;7538;53.626;9.906;2023-09-19T02:29:38;17.10;99.90
14893;DHT22;7538;53.626;9.906;2023-09-19T02:32:05;17.10;99.90
14893;DHT22;7538;53.626;9.906;2023-09-19T02:34:32;17.00;99.90
14893;DHT22;7538;53.626;9.906;2023-09-19T02:37:03;17.10;99.90
14893;DHT22;7538;53.626;9.906;2023-09-19T02:39:31;17.00;99.90
14893;DHT22;7538;53.626;9.906;2023-09-19T02:41:58;17.00;99.90
14893;DHT22;7538;53.626;9.906;2023-09-19T02:44:25;16.90;99.90
14893;DHT22;7538;53.626;9.906;2023-09-19T02:46:53;17.00;99.90
14893;DHT22;7538;53.626;9.906;2023-09-19T02:49:20;17.00;99.90
14893;DHT22;7538;53.626;9.906;2023-09-19T02:51:47;17.00;99.90
14893;DHT22;7538;53.626;9.906;2023-09-19T02:54:15;17.00;99.90
14893;DHT22;7538;53.626;9.906;2023-09-19T02:56:52;17.00;99.90
14893;DHT22;7538;53.626;9.906;2023-09-19T02:59:19;17.00;99.90
14893;DHT22;7538;53.626;9.906;2023-09-19T03:01:46;17.00;99.90
14893;DHT22;7538;53.626;9.906;2023-09-19T03:04:14;17.00;99.90
14893;DHT22;7538;53.626;9.906;2023-09-19T03:06:45;17.00;99.90
14893;DHT22;7538;53.626;9.906;2023-09-19T03:09:15;16.90;99.90
14893;DHT22;7538;53.626;9.906;2023-09-19T03:11:42;16.90;99.90
14893;DHT22;7538;53.626;9.906;2023-09-19T03:14:13;17.00;99.90
14893;DHT22;7538;53.626;9.906;2023-09-19T03:16:41;17.00;99.90
14893;DHT22;7538;53.626;9.906;2023-09-19T03:19:10;17.00;99.90
14893;DHT22;7538;53.626;9.906;2023-09-19T03:21:37;17.00;99.90
14893;DHT22;7538;53.626;9.906;2023-09-19T03:24:07;17.10;99.90
14893;DHT22;7538;53.626;9.906;2023-09-19T03:26:37;17.00;99.90
14893;DHT22;7538;53.626;9.906;2023-09-19T03:29:04;17.00;99.90
14893;DHT22;7538;53.626;9.906;2023-09-19T03:31:34;17.00;99.90
14893;DHT22;7538;53.626;9.906;2023-09-19T03:34:05;17.00;99.90
14893;DHT22;7538;53.626;9.906;2023-09-19T03:36:36;17.00;99.90
14893;DHT22;7538;53.626;9.906;2023-09-19T03:39:03;16.80;99.90
14893;DHT22;7538;53.626;9.906;2023-09-19T03:41:31;17.00;99.90
14893;DHT22;7538;53.626;9.906;2023-09-19T03:43:59;17.10;99.90
14893;DHT22;7538;53.626;9.906;2023-09-19T03:46:26;17.10;99.90
14893;DHT22;7538;53.626;9.906;2023-09-19T03:48:54;17.10;99.90
14893;DHT22;7538;53.626;9.906;2023-09-19T03:51:21;17.20;99.90
14893;DHT22;7538;53.626;9.906;2023-09-19T03:53:48;17.20;99.90
14893;DHT22;7538;53.626;9.906;2023-09-19T03:56:15;17.20;99.90
14893;DHT22;7538;53.626;9.906;2023-09-19T03:58:48;18.80;99.90
14893;DHT22;7538;53.626;9.906;2023-09-19T04:01:17;17.20;99.90
14893;DHT22;7538;53.626;9.906;2023-09-19T04:03:44;17.20;99.90
14893;DHT22;7538;53.626;9.906;2023-09-19T04:06:14;17.20;99.90
14893;DHT22;7538;53.626;9.906;2023-09-19T04:08:41;17.10;99.90
14893;DHT22;7538;53.626;9.906;2023-09-19T04:11:09;18.10;99.90
14893;DHT22;7538;53.626;9.906;2023-09-19T04:13:36;16.90;99.90
14893;DHT22;7538;53.626;9.906;2023-09-19T04:16:03;16.80;99.90
14893;DHT22;7538;53.626;9.906;2023-09-19T04:18:33;16.80;99.90
14893;DHT22;7538;53.626;9.906;2023-09-19T04:21:03;16.70;99.90
14893;DHT22;7538;53.626;9.906;2023-09-19T04:23:31;16.90;99.90
14893;DHT22;7538;53.626;9.906;2023-09-19T04:25:58;16.00;99.90
14893;DHT22;7538;53.626;9.906;2023-09-19T04:28:25;16.50;99.90
14893;DHT22;7538;53.626;9.906;2023-09-19T04:30:53;16.50;99.90
14893;DHT22;7538;53.626;9.906;2023-09-19T04:33:20;16.60;99.90
14893;DHT22;7538;53.626;9.906;2023-09-19T04:38:17;16.40;99.90
14893;DHT22;7538;53.626;9.906;2023-09-19T04:40:44;16.30;99.90
14893;DHT22;7538;53.626;9.906;2023-09-19T04:43:11;16.40;99.90
14893;DHT22;7538;53.626;9.906;2023-09-19T04:45:39;16.60;99.90
14893;DHT22;7538;53.626;9.906;2023-09-19T04:48:06;16.20;99.90
14893;DHT22;7538;53.626;9.906;2023-09-19T04:50:34;16.20;99.90
14893;DHT22;7538;53.626;9.906;2023-09-19T04:53:04;16.20;99.90
14893;DHT22;7538;53.626;9.906;2023-09-19T04:55:31;16.50;99.90
14893;DHT22;7538;53.626;9.906;2023-09-19T04:57:58;16.30;99.90
14893;DHT22;7538;53.626;9.906;2023-09-19T05:00:25;16.10;99.90
14893;DHT22;7538;53.626;9.906;2023-09-19T05:02:56;16.10;99.90
14893;DHT22;7538;53.626;9.906;2023-09-19T05:05:23;16.00;99.90
14893;DHT22;7538;53.626;9.906;2023-09-19T05:07:51;16.30;99.90
14893;DHT22;7538;53.626;9.906;2023-09-19T05:10:21;16.60;99.90
14893;DHT22;7538;53.626;9.906;2023-09-19T05:12:48;16.00;99.90
14893;DHT22;7538;53.626;9.906;2023-09-19T05:15:17;15.90;99.90
14893;DHT22;7538;53.626;9.906;2023-09-19T05:17:48;15.90;99.90
14893;DHT22;7538;53.626;9.906;2023-09-19T05:20:15;15.90;99.90
14893;DHT22;7538;53.626;9.906;2023-09-19T05:22:50;15.90;99.90
14893;DHT22;7538;53.626;9.906;2023-09-19T05:25:17;16.10;99.90
14893;DHT22;7538;53.626;9.906;2023-09-19T05:27:45;16.10;99.90
14893;DHT22;7538;53.626;9.906;2023-09-19T05:30:13;16.00;99.90
14893;DHT22;7538;53.626;9.906;2023-09-19T05:32:41;16.00;99.90
14893;DHT22;7538;53.626;9.906;2023-09-19T05:35:09;15.80;99.90
14893;DHT22;7538;53.626;9.906;2023-09-19T05:37:38;15.80;99.90
14893;DHT22;7538;53.626;9.906;2023-09-19T05:40:06;15.80;99.90
14893;DHT22;7538;53.626;9.906;2023-09-19T05:42:36;15.80;99.90
14893;DHT22;7538;53.626;9.906;2023-09-19T05:47:32;15.70;99.90
14893;DHT22;7538;53.626;9.906;2023-09-19T05:49:59;15.80;99.90
14893;DHT22;7538;53.626;9.906;2023-09-19T05:52:26;15.80;99.90
14893;DHT22;7538;53.626;9.906;2023-09-19T05:54:53;15.80;99.90
14893;DHT22;7538;53.626;9.906;2023-09-19T05:57:22;15.80;99.90
14893;DHT22;7538;53.626;9.906;2023-09-19T05:59:50;15.80;99.90
14893;DHT22;7538;53.626;9.906;2023-09-19T06:02:18;15.80;99.90
14893;DHT22;7538;53.626;9.906;2023-09-19T06:04:45;15.70;99.90
14893;DHT22;7538;53.626;9.906;2023-09-19T06:07:12;15.90;99.90
14893;DHT22;7538;53.626;9.906;2023-09-19T06:09:39;16.00;99.90
14893;DHT22;7538;53.626;9.906;2023-09-19T06:12:06;16.20;99.90
14893;DHT22;7538;53.626;9.906;2023-09-19T06:14:33;16.40;99.90
14893;DHT22;7538;53.626;9.906;2023-09-19T06:17:00;16.50;99.90
14893;DHT22;7538;53.626;9.906;2023-09-19T06:19:28;16.50;99.90
14893;DHT22;7538;53.626;9.906;2023-09-19T06:21:55;16.80;99.90
14893;DHT22;7538;53.626;9.906;2023-09-19T06:24:22;17.40;99.90
14893;DHT22;7538;53.626;9.906;2023-09-19T06:26:48;17.10;99.90
14893;DHT22;7538;53.626;9.906;2023-09-19T06:29:15;17.10;99.90
14893;DHT22;7538;53.626;9.906;2023-09-19T06:31:42;17.20;99.90
14893;DHT22;7538;53.626;9.906;2023-09-19T06:34:10;17.20;99.90
14893;DHT22;7538;53.626;9.906;2023-09-19T06:36:38;17.30;99.90
14893;DHT22;7538;53.626;9.906;2023-09-19T06:39:06;17.40;99.90
14893;DHT22;7538;53.626;9.906;2023-09-19T06:41:36;17.50;99.90
14893;DHT22;7538;53.626;9.906;2023-09-19T06:44:05;17.50;99.90
14893;DHT22;7538;53.626;9.906;2023-09-19T06:46:32;17.50;99.90
14893;DHT22;7538;53.626;9.906;2023-09-19T06:49:00;17.50;99.90
14893;DHT22;7538;53.626;9.906;2023-09-19T06:51:29;17.50;99.90
14893;DHT22;7538;53.626;9.906;2023-09-19T06:53:57;17.50;99.90
14893;DHT22;7538;53.626;9.906;2023-09-19T06:56:24;17.60;99.90
14893;DHT22;7538;53.626;9.906;2023-09-19T06:58:51;17.70;99.90
14893;DHT22;7538;53.626;9.906;2023-09-19T07:01:18;17.50;99.90
14893;DHT22;7538;53.626;9.906;2023-09-19T07:03:45;17.40;99.90
14893;DHT22;7538;53.626;9.906;2023-09-19T07:06:12;17.60;99.90
14893;DHT22;7538;53.626;9.906;2023-09-19T07:08:39;17.70;99.90
14893;DHT22;7538;53.626;9.906;2023-09-19T07:11:07;17.80;99.90
14893;DHT22;7538;53.626;9.906;2023-09-19T07:13:34;17.90;99.90
14893;DHT22;7538;53.626;9.906;2023-09-19T07:16:02;18.10;99.90
14893;DHT22;7538;53.626;9.906;2023-09-19T07:18:29;18.20;99.90
14893;DHT22;7538;53.626;9.906;2023-09-19T07:20:57;18.40;99.90
14893;DHT22;7538;53.626;9.906;2023-09-19T07:23:30;18.50;99.90
14893;DHT22;7538;53.626;9.906;2023-09-19T07:26:00;18.50;99.90
14893;DHT22;7538;53.626;9.906;2023-09-19T07:28:28;18.50;99.90
14893;DHT22;7538;53.626;9.906;2023-09-19T07:30:55;18.50;99.90
14893;DHT22;7538;53.626;9.906;2023-09-19T07:33:22;18.40;99.90
14893;DHT22;7538;53.626;9.906;2023-09-19T07:35:50;18.40;99.90
14893;DHT22;7538;53.626;9.906;2023-09-19T07:38:17;18.40;99.90
14893;DHT22;7538;53.626;9.906;2023-09-19T07:40:44;18.30;99.90
14893;DHT22;7538;53.626;9.906;2023-09-19T07:43:11;18.10;99.90
14893;DHT22;7538;53.626;9.906;2023-09-19T07:45:41;17.90;99.90
14893;DHT22;7538;53.626;9.906;2023-09-19T07:48:08;14.20;99.90
14893;DHT22;7538;53.626;9.906;2023-09-19T07:50:40;17.60;99.90
14893;DHT22;7538;53.626;9.906;2023-09-19T07:53:09;17.30;99.90
14893;DHT22;7538;53.626;9.906;2023-09-19T07:55:38;17.40;99.90
14893;DHT22;7538;53.626;9.906;2023-09-19T07:58:06;17.20;99.90
14893;DHT22;7538;53.626;9.906;2023-09-19T08:00:33;17.10;99.90
14893;DHT22;7538;53.626;9.906;2023-09-19T08:03:02;17.10;99.90
14893;DHT22;7538;53.626;9.906;2023-09-19T08:05:29;17.10;99.90
14893;DHT22;7538;53.626;9.906;2023-09-19T08:07:56;17.30;99.90
14893;DHT22;7538;53.626;9.906;2023-09-19T08:10:24;17.10;99.90
14893;DHT22;7538;53.626;9.906;2023-09-19T08:12:53;17.10;99.90
14893;DHT22;7538;53.626;9.906;2023-09-19T08:15:23;17.10;99.90
14893;DHT22;7538;53.626;9.906;2023-09-19T08:17:50;17.20;99.90
14893;DHT22;7538;53.626;9.906;2023-09-19T08:20:18;17.30;99.90
14893;DHT22;7538;53.626;9.906;2023-09-19T08:22:47;17.40;99.90
14893;DHT22;7538;53.626;9.906;2023-09-19T08:25:15;17.50;99.90
14893;DHT22;7538;53.626;9.906;2023-09-19T08:27:44;17.40;99.90
14893;DHT22;7538;53.626;9.906;2023-09-19T08:30:13;17.60;99.90
14893;DHT22;7538;53.626;9.906;2023-09-19T08:32:41;17.70;99.90
14893;DHT22;7538;53.626;9.906;2023-09-19T08:35:08;17.90;99.90
14893;DHT22;7538;53.626;9.906;2023-09-19T08:37:37;17.80;99.90
14893;DHT22;7538;53.626;9.906;2023-09-19T08:40:04;17.80;99.90
14893;DHT22;7538;53.626;9.906;2023-09-19T08:42:47;17.90;99.90
14893;DHT22;7538;53.626;9.906;2023-09-19T08:45:15;18.00;99.90
14893;DHT22;7538;53.626;9.906;2023-09-19T08:47:46;18.00;99.90
14893;DHT22;7538;53.626;9.906;2023-09-19T08:50:19;18.10;99.90
14893;DHT22;7538;53.626;9.906;2023-09-19T08:52:51;18.20;99.90
14893;DHT22;7538;53.626;9.906;2023-09-19T08:55:24;18.10;99.90
14893;DHT22;7538;53.626;9.906;2023-09-19T08:58:00;18.20;99.90
14893;DHT22;7538;53.626;9.906;2023-09-19T09:00:28;18.10;99.90
14893;DHT22;7538;53.626;9.906;2023-09-19T09:02:56;18.20;99.90
14893;DHT22;7538;53.626;9.906;2023-09-19T09:05:24;18.30;99.90
14893;DHT22;7538;53.626;9.906;2023-09-19T09:07:55;18.30;99.90
14893;DHT22;7538;53.626;9.906;2023-09-19T09:10:23;18.50;99.90
14893;DHT22;7538;53.626;9.906;2023-09-19T09:12:52;18.50;99.90
14893;DHT22;7538;53.626;9.906;2023-09-19T09:15:21;18.70;99.90
14893;DHT22;7538;53.626;9.906;2023-09-19T09:17:49;18.60;99.90
14893;DHT22;7538;53.626;9.906;2023-09-19T09:20:16;18.80;99.90
14893;DHT22;7538;53.626;9.906;2023-09-19T09:22:51;18.70;99.90
14893;DHT22;7538;53.626;9.906;2023-09-19T09:25:20;18.80;99.90
14893;DHT22;7538;53.626;9.906;2023-09-19T09:27:59;18.70;99.90
14893;DHT22;7538;53.626;9.906;2023-09-19T09:30:33;18.90;99.90
14893;DHT22;7538;53.626;9.906;2023-09-19T09:33:09;19.10;99.90
14893;DHT22;7538;53.626;9.906;2023-09-19T09:35:37;19.50;99.90
14893;DHT22;7538;53.626;9.906;2023-09-19T09:38:07;20.00;99.90
14893;DHT22;7538;53.626;9.906;2023-09-19T09:40:48;20.40;99.90
14893;DHT22;7538;53.626;9.906;2023-09-19T09:43:33;20.80;99.90
14893;DHT22;7538;53.626;9.906;2023-09-19T09:46:13;21.30;99.00
14893;DHT22;7538;53.626;9.906;2023-09-19T09:49:00;21.80;97.70
14893;DHT22;7538;53.626;9.906;2023-09-19T09:51:57;22.10;96.70
14893;DHT22;7538;53.626;9.906;2023-09-19T09:54:26;22.40;95.80
14893;DHT22;7538;53.626;9.906;2023-09-19T09:57:01;22.70;95.50
14893;DHT22;7538;53.626;9.906;2023-09-19T09:59:46;23.00;94.70
14893;DHT22;7538;53.626;9.906;2023-09-19T10:02:15;23.20;93.60
14893;DHT22;7538;53.626;9.906;2023-09-19T10:04:48;23.40;93.20
14893;DHT22;7538;53.626;9.906;2023-09-19T10:07:28;23.80;92.60
14893;DHT22;7538;53.626;9.906;2023-09-19T10:09:59;24.20;91.60
14893;DHT22;7538;53.626;9.906;2023-09-19T10:12:40;24.00;91.50
14893;DHT22;7538;53.626;9.906;2023-09-19T10:15:08;23.90;91.10
14893;DHT22;7538;53.626;9.906;2023-09-19T10:17:38;23.90;91.40
14893;DHT22;7538;53.626;9.906;2023-09-19T10:20:10;23.60;90.90
14893;DHT22;7538;53.626;9.906;2023-09-19T10:22:48;23.40;91.10
14893;DHT22;7538;53.626;9.906;2023-09-19T10:25:25;23.10;91.60
14893;DHT22;7538;53.626;9.906;2023-09-19T10:27:56;22.90;91.20
14893;DHT22;7538;53.626;9.906;2023-09-19T10:30:25;22.90;91.30
14893;DHT22;7538;53.626;9.906;2023-09-19T10:33:00;23.00;91.40
14893;DHT22;7538;53.626;9.906;2023-09-19T10:35:27;23.10;91.30
14893;DHT22;7538;53.626;9.906;2023-09-19T10:37:57;23.20;91.00
14893;DHT22;7538;53.626;9.906;2023-09-19T10:40:27;23.50;91.40
14893;DHT22;7538;53.626;9.906;2023-09-19T10:43:06;23.60;90.50
14893;DHT22;7538;53.626;9.906;2023-09-19T10:45:40;23.30;90.90
14893;DHT22;7538;53.626;9.906;2023-09-19T10:48:07;23.30;91.20
14893;DHT22;7538;53.626;9.906;2023-09-19T10:50:43;23.00;91.00
14893;DHT22;7538;53.626;9.906;2023-09-19T10:53:12;22.80;91.30
14893;DHT22;7538;53.626;9.906;2023-09-19T10:55:41;22.30;91.40
14893;DHT22;7538;53.626;9.906;2023-09-19T10:58:25;22.10;91.70
14893;DHT22;7538;53.626;9.906;2023-09-19T11:00:55;22.00;91.90
14893;DHT22;7538;53.626;9.906;2023-09-19T11:03:23;21.80;92.00
14893;DHT22;7538;53.626;9.906;2023-09-19T11:06:03;21.60;92.30
14893;DHT22;7538;53.626;9.906;2023-09-19T11:08:59;21.50;92.80
14893;DHT22;7538;53.626;9.906;2023-09-19T11:11:47;21.40;93.30
14893;DHT22;7538;53.626;9.906;2023-09-19T11:14:30;21.30;93.20
14893;DHT22;7538;53.626;9.906;2023-09-19T11:17:29;21.20;93.70
14893;DHT22;7538;53.626;9.906;2023-09-19T11:20:30;20.90;93.90
14893;DHT22;7538;53.626;9.906;2023-09-19T11:23:23;20.70;94.70
14893;DHT22;7538;53.626;9.906;2023-09-19T11:25:52;20.60;95.50
14893;DHT22;7538;53.626;9.906;2023-09-19T11:28:33;20.60;95.40
14893;DHT22;7538;53.626;9.906;2023-09-19T11:34:45;20.80;94.80
14893;DHT22;7538;53.626;9.906;2023-09-19T11:40:33;21.00;93.60
14893;DHT22;7538;53.626;9.906;2023-09-19T11:43:30;21.00;93.60
14893;DHT22;7538;53.626;9.906;2023-09-19T11:46:09;21.10;93.40
14893;DHT22;7538;53.626;9.906;2023-09-19T11:48:38;21.10;93.40
14893;DHT22;7538;53.626;9.906;2023-09-19T11:51:15;21.10;93.60
14893;DHT22;7538;53.626;9.906;2023-09-19T11:53:46;21.30;93.40
14893;DHT22;7538;53.626;9.906;2023-09-19T11:56:16;21.30;93.40
14893;DHT22;7538;53.626;9.906;2023-09-19T11:58:45;21.30;93.20
14893;DHT22;7538;53.626;9.906;2023-09-19T12:01:19;21.20;93.70
14893;DHT22;7538;53.626;9.906;2023-09-19T12:03:50;21.10;93.80
14893;DHT22;7538;53.626;9.906;2023-09-19T12:06:22;21.20;93.90
14893;DHT22;7538;53.626;9.906;2023-09-19T12:08:49;21.30;93.60
14893;DHT22;7538;53.626;9.906;2023-09-19T12:11:17;21.60;94.10
14893;DHT22;7538;53.626;9.906;2023-09-19T12:13:46;21.60;93.50
14893;DHT22;7538;53.626;9.906;2023-09-19T12:16:14;21.50;92.80
14893;DHT22;7538;53.626;9.906;2023-09-19T12:18:42;21.30;92.60
14893;DHT22;7538;53.626;9.906;2023-09-19T12:21:25;21.00;93.20
14893;DHT22;7538;53.626;9.906;2023-09-19T12:24:01;21.40;93.40
14893;DHT22;7538;53.626;9.906;2023-09-19T12:26:38;21.30;93.70
14893;DHT22;7538;53.626;9.906;2023-09-19T12:29:11;21.30;93.40
14893;DHT22;7538;53.626;9.906;2023-09-19T12:31:47;21.30;93.70
14893;DHT22;7538;53.626;9.906;2023-09-19T12:34:16;21.40;94.00
14893;DHT22;7538;53.626;9.906;2023-09-19T12:36:46;21.40;93.40
14893;DHT22;7538;53.626;9.906;2023-09-19T12:39:23;21.40;92.90
14893;DHT22;7538;53.626;9.906;2023-09-19T12:41:50;21.40;92.60
14893;DHT22;7538;53.626;9.906;2023-09-19T12:44:18;21.40;92.70
14893;DHT22;7538;53.626;9.906;2023-09-19T12:46:45;21.40;92.60
14893;DHT22;7538;53.626;9.906;2023-09-19T12:49:16;21.40;92.60
14893;DHT22;7538;53.626;9.906;2023-09-19T12:51:46;21.40;92.70
14893;DHT22;7538;53.626;9.906;2023-09-19T12:54:13;21.40;93.00
14893;DHT22;7538;53.626;9.906;2023-09-19T12:56:42;21.40;92.70
14893;DHT22;7538;53.626;9.906;2023-09-19T12:59:12;21.30;93.20
14893;DHT22;7538;53.626;9.906;2023-09-19T13:01:39;21.40;92.70
14893;DHT22;7538;53.626;9.906;2023-09-19T13:04:16;18.00;91.10
14893;DHT22;7538;53.626;9.906;2023-09-19T13:06:52;21.50;92.30
14893;DHT22;7538;53.626;9.906;2023-09-19T13:09:21;21.50;92.10
14893;DHT22;7538;53.626;9.906;2023-09-19T13:11:50;21.50;91.70
14893;DHT22;7538;53.626;9.906;2023-09-19T13:14:20;21.50;91.80
14893;DHT22;7538;53.626;9.906;2023-09-19T13:16:59;21.40;92.00
14893;DHT22;7538;53.626;9.906;2023-09-19T13:19:41;21.50;91.70
14893;DHT22;7538;53.626;9.906;2023-09-19T13:22:38;21.60;91.60
14893;DHT22;7538;53.626;9.906;2023-09-19T13:27:33;21.70;91.70
14893;DHT22;7538;53.626;9.906;2023-09-19T13:30:00;21.70;91.50
14893;DHT22;7538;53.626;9.906;2023-09-19T13:32:27;21.80;91.40
14893;DHT22;7538;53.626;9.906;2023-09-19T13:34:54;21.80;91.40
14893;DHT22;7538;53.626;9.906;2023-09-19T13:37:21;21.90;91.20
14893;DHT22;7538;53.626;9.906;2023-09-19T13:39:59;21.80;91.30
14893;DHT22;7538;53.626;9.906;2023-09-19T13:42:28;21.80;91.60
14893;DHT22;7538;53.626;9.906;2023-09-19T13:44:55;21.80;91.20
14893;DHT22;7538;53.626;9.906;2023-09-19T13:47:22;21.70;91.20
14893;DHT22;7538;53.626;9.906;2023-09-19T13:49:52;21.60;91.20
14893;DHT22;7538;53.626;9.906;2023-09-19T13:52:19;21.50;91.30
14893;DHT22;7538;53.626;9.906;2023-09-19T13:54:47;21.50;91.40
14893;DHT22;7538;53.626;9.906;2023-09-19T13:57:16;21.40;91.50
14893;DHT22;7538;53.626;9.906;2023-09-19T13:59:43;21.40;91.50
14893;DHT22;7538;53.626;9.906;2023-09-19T14:02:11;21.40;91.70
14893;DHT22;7538;53.626;9.906;2023-09-19T14:04:39;21.40;91.20
14893;DHT22;7538;53.626;9.906;2023-09-19T14:07:06;21.40;91.30
14893;DHT22;7538;53.626;9.906;2023-09-19T14:09:34;21.50;91.70
14893;DHT22;7538;53.626;9.906;2023-09-19T14:12:01;21.40;91.60
14893;DHT22;7538;53.626;9.906;2023-09-19T14:14:29;21.30;91.60
14893;DHT22;7538;53.626;9.906;2023-09-19T14:16:56;21.30;91.60
14893;DHT22;7538;53.626;9.906;2023-09-19T14:19:26;21.30;92.20
14893;DHT22;7538;53.626;9.906;2023-09-19T14:21:53;21.30;91.30
14893;DHT22;7538;53.626;9.906;2023-09-19T14:24:21;21.30;92.10
14893;DHT22;7538;53.626;9.906;2023-09-19T14:26:48;21.40;91.80
14893;DHT22;7538;53.626;9.906;2023-09-19T14:29:16;21.60;91.80
14893;DHT22;7538;53.626;9.906;2023-09-19T14:31:44;21.50;92.00
14893;DHT22;7538;53.626;9.906;2023-09-19T14:34:11;21.60;92.00
14893;DHT22;7538;53.626;9.906;2023-09-19T14:36:38;21.60;91.60
14893;DHT22;7538;53.626;9.906;2023-09-19T14:39:05;21.50;91.90
14893;DHT22;7538;53.626;9.906;2023-09-19T14:41:33;21.40;91.90
14893;DHT22;7538;53.626;9.906;2023-09-19T14:44:02;21.40;92.30
14893;DHT22;7538;53.626;9.906;2023-09-19T14:46:30;21.40;92.10
14893;DHT22;7538;53.626;9.906;2023-09-19T14:48:58;21.40;92.30
14893;DHT22;7538;53.626;9.906;2023-09-19T14:51:29;21.30;92.80
14893;DHT22;7538;53.626;9.906;2023-09-19T14:53:56;21.30;92.50
14893;DHT22;7538;53.626;9.906;2023-09-19T14:56:23;21.10;92.60
14893;DHT22;7538;53.626;9.906;2023-09-19T14:58:51;21.10;93.00
14893;DHT22;7538;53.626;9.906;2023-09-19T15:01:18;21.00;93.20
14893;DHT22;7538;53.626;9.906;2023-09-19T15:03:45;21.00;93.40
14893;DHT22;7538;53.626;9.906;2023-09-19T15:06:15;21.10;93.50
14893;DHT22;7538;53.626;9.906;2023-09-19T15:08:43;21.10;93.60
14893;DHT22;7538;53.626;9.906;2023-09-19T15:11:13;21.20;93.60
14893;DHT22;7538;53.626;9.906;2023-09-19T15:13:42;21.10;93.60
14893;DHT22;7538;53.626;9.906;2023-09-19T15:16:10;21.00;93.40
14893;DHT22;7538;53.626;9.906;2023-09-19T15:18:39;20.90;93.80
14893;DHT22;7538;53.626;9.906;2023-09-19T15:21:08;20.80;94.30
14893;DHT22;7538;53.626;9.906;2023-09-19T15:23:38;20.70;94.30
14893;DHT22;7538;53.626;9.906;2023-09-19T15:26:06;20.60;94.70
14893;DHT22;7538;53.626;9.906;2023-09-19T15:28:34;20.70;94.90
14893;DHT22;7538;53.626;9.906;2023-09-19T15:31:03;20.70;94.70
14893;DHT22;7538;53.626;9.906;2023-09-19T15:33:31;20.60;94.70
14893;DHT22;7538;53.626;9.906;2023-09-19T15:36:03;20.60;95.10
14893;DHT22;7538;53.626;9.906;2023-09-19T15:38:30;20.70;94.90
14893;DHT22;7538;53.626;9.906;2023-09-19T15:40:59;20.70;95.30
14893;DHT22;7538;53.626;9.906;2023-09-19T15:43:26;20.60;95.20
14893;DHT22;7538;53.626;9.906;2023-09-19T15:45:53;20.60;95.60
14893;DHT22;7538;53.626;9.906;2023-09-19T15:48:20;20.60;95.40
14893;DHT22;7538;53.626;9.906;2023-09-19T15:50:49;20.60;95.70
14893;DHT22;7538;53.626;9.906;2023-09-19T15:53:16;20.50;95.60
14893;DHT22;7538;53.626;9.906;2023-09-19T15:55:43;20.40;95.80
14893;DHT22;7538;53.626;9.906;2023-09-19T15:58:12;20.40;95.80
14893;DHT22;7538;53.626;9.906;2023-09-19T16:00:40;20.30;95.90
14893;DHT22;7538;53.626;9.906;2023-09-19T16:03:07;21.80;96.00
14893;DHT22;7538;53.626;9.906;2023-09-19T16:05:37;20.10;96.40
14893;DHT22;7538;53.626;9.906;2023-09-19T16:08:05;20.10;95.90
14893;DHT22;7538;53.626;9.906;2023-09-19T16:10:34;20.10;96.30
14893;DHT22;7538;53.626;9.906;2023-09-19T16:13:02;20.10;96.10
14893;DHT22;7538;53.626;9.906;2023-09-19T16:15:34;20.00;96.40
14893;DHT22;7538;53.626;9.906;2023-09-19T16:18:06;20.00;96.40